sensor_id;sensor_type;location;lat;lon;timestamp;P1;durP1;ratioP1;P2;durP2;ratioP2
66145;SDS011;52948;60.040;30.320;2022-12-18T00:00:56;10.25;;;6.63;;
66145;SDS011;52948;60.040;30.320;2022-12-18T00:05:58;10.45;;;6.18;;
66145;SDS011;52948;60.040;30.320;2022-12-18T00:11:05;12.27;;;6.35;;
66145;SDS011;52948;60.040;30.320;2022-12-18T00:16:13;9.10;;;5.82;;
66145;SDS011;52948;60.040;30.320;2022-12-18T00:21:22;11.45;;;6.18;;
66145;SDS011;52948;60.040;30.320;2022-12-18T00:26:29;10.18;;;5.93;;
66145;SDS011;52948;60.040;30.320;2022-12-18T00:31:36;9.27;;;5.43;;
66145;SDS011;52948;60.040;30.320;2022-12-18T00:36:40;10.75;;;5.80;;
66145;SDS011;52948;60.040;30.320;2022-12-18T00:41:42;10.15;;;6.13;;
66145;SDS011;52948;60.040;30.320;2022-12-18T00:47:03;9.80;;;5.43;;
66145;SDS011;52948;60.040;30.320;2022-12-18T00:52:06;8.80;;;5.47;;
66145;SDS011;52948;60.040;30.320;2022-12-18T00:57:08;9.95;;;6.05;;
66145;SDS011;52948;60.040;30.320;2022-12-18T01:02:10;11.70;;;5.65;;
66145;SDS011;52948;60.040;30.320;2022-12-18T01:07:15;8.73;;;5.70;;
66145;SDS011;52948;60.040;30.320;2022-12-18T01:12:19;10.65;;;5.82;;
66145;SDS011;52948;60.040;30.320;2022-12-18T01:17:25;7.95;;;5.03;;
66145;SDS011;52948;60.040;30.320;2022-12-18T01:22:28;8.77;;;5.65;;
66145;SDS011;52948;60.040;30.320;2022-12-18T01:27:31;10.60;;;6.03;;
66145;SDS011;52948;60.040;30.320;2022-12-18T01:32:34;9.13;;;5.65;;
66145;SDS011;52948;60.040;30.320;2022-12-18T01:37:37;13.65;;;6.68;;
66145;SDS011;52948;60.040;30.320;2022-12-18T01:42:40;10.40;;;6.13;;
66145;SDS011;52948;60.040;30.320;2022-12-18T01:53:00;9.57;;;5.80;;
66145;SDS011;52948;60.040;30.320;2022-12-18T01:58:14;9.32;;;5.28;;
66145;SDS011;52948;60.040;30.320;2022-12-18T02:03:17;9.55;;;6.38;;
66145;SDS011;52948;60.040;30.320;2022-12-18T02:19:08;10.43;;;6.28;;
66145;SDS011;52948;60.040;30.320;2022-12-18T02:24:38;9.07;;;5.85;;
66145;SDS011;52948;60.040;30.320;2022-12-18T02:30:01;9.15;;;5.72;;
66145;SDS011;52948;60.040;30.320;2022-12-18T02:35:09;9.10;;;5.35;;
66145;SDS011;52948;60.040;30.320;2022-12-18T02:40:15;11.32;;;5.68;;
66145;SDS011;52948;60.040;30.320;2022-12-18T02:45:20;8.35;;;4.90;;
66145;SDS011;52948;60.040;30.320;2022-12-18T02:50:26;10.48;;;5.82;;
66145;SDS011;52948;60.040;30.320;2022-12-18T03:06:16;9.45;;;5.72;;
66145;SDS011;52948;60.040;30.320;2022-12-18T03:11:24;10.70;;;5.97;;
66145;SDS011;52948;60.040;30.320;2022-12-18T03:16:49;13.75;;;7.53;;
66145;SDS011;52948;60.040;30.320;2022-12-18T03:21:57;13.65;;;7.75;;
66145;SDS011;52948;60.040;30.320;2022-12-18T03:27:11;12.43;;;7.35;;
66145;SDS011;52948;60.040;30.320;2022-12-18T03:32:16;15.10;;;8.57;;
66145;SDS011;52948;60.040;30.320;2022-12-18T03:37:34;14.05;;;8.07;;
66145;SDS011;52948;60.040;30.320;2022-12-18T03:42:42;13.43;;;7.88;;
66145;SDS011;52948;60.040;30.320;2022-12-18T03:48:13;12.60;;;8.02;;
66145;SDS011;52948;60.040;30.320;2022-12-18T03:53:41;13.93;;;7.78;;
66145;SDS011;52948;60.040;30.320;2022-12-18T03:58:52;16.15;;;9.13;;
66145;SDS011;52948;60.040;30.320;2022-12-18T04:03:59;15.30;;;8.13;;
66145;SDS011;52948;60.040;30.320;2022-12-18T04:09:05;17.42;;;8.10;;
66145;SDS011;52948;60.040;30.320;2022-12-18T04:14:12;14.02;;;8.15;;
66145;SDS011;52948;60.040;30.320;2022-12-18T04:19:14;16.17;;;8.35;;
66145;SDS011;52948;60.040;30.320;2022-12-18T04:24:19;14.48;;;7.80;;
66145;SDS011;52948;60.040;30.320;2022-12-18T04:29:31;15.02;;;8.13;;
66145;SDS011;52948;60.040;30.320;2022-12-18T04:34:35;12.65;;;7.53;;
66145;SDS011;52948;60.040;30.320;2022-12-18T04:39:37;14.18;;;7.57;;
66145;SDS011;52948;60.040;30.320;2022-12-18T04:44:45;13.65;;;7.30;;
66145;SDS011;52948;60.040;30.320;2022-12-18T04:49:47;12.75;;;7.43;;
66145;SDS011;52948;60.040;30.320;2022-12-18T04:54:50;15.10;;;7.80;;
66145;SDS011;52948;60.040;30.320;2022-12-18T04:59:52;16.08;;;7.50;;
66145;SDS011;52948;60.040;30.320;2022-12-18T05:04:55;16.00;;;8.00;;
66145;SDS011;52948;60.040;30.320;2022-12-18T05:09:57;15.07;;;7.78;;
66145;SDS011;52948;60.040;30.320;2022-12-18T05:15:00;18.23;;;8.10;;
66145;SDS011;52948;60.040;30.320;2022-12-18T05:20:05;17.30;;;8.32;;
66145;SDS011;52948;60.040;30.320;2022-12-18T05:25:08;17.63;;;8.82;;
66145;SDS011;52948;60.040;30.320;2022-12-18T05:30:10;12.57;;;7.35;;
66145;SDS011;52948;60.040;30.320;2022-12-18T05:35:13;17.33;;;7.80;;
66145;SDS011;52948;60.040;30.320;2022-12-18T05:40:15;14.93;;;8.88;;
66145;SDS011;52948;60.040;30.320;2022-12-18T05:45:19;13.63;;;7.78;;
66145;SDS011;52948;60.040;30.320;2022-12-18T05:50:22;15.82;;;8.88;;
66145;SDS011;52948;60.040;30.320;2022-12-18T05:55:24;19.13;;;9.27;;
66145;SDS011;52948;60.040;30.320;2022-12-18T06:00:28;18.90;;;9.02;;
66145;SDS011;52948;60.040;30.320;2022-12-18T06:05:34;18.30;;;9.48;;
66145;SDS011;52948;60.040;30.320;2022-12-18T06:10:49;19.70;;;9.27;;
66145;SDS011;52948;60.040;30.320;2022-12-18T06:15:53;19.38;;;9.60;;
66145;SDS011;52948;60.040;30.320;2022-12-18T06:21:02;19.27;;;9.52;;
66145;SDS011;52948;60.040;30.320;2022-12-18T06:26:06;22.13;;;10.38;;
66145;SDS011;52948;60.040;30.320;2022-12-18T06:31:09;19.67;;;10.77;;
66145;SDS011;52948;60.040;30.320;2022-12-18T06:36:12;19.60;;;9.95;;
66145;SDS011;52948;60.040;30.320;2022-12-18T06:41:18;19.35;;;10.55;;
66145;SDS011;52948;60.040;30.320;2022-12-18T06:46:21;21.55;;;11.15;;
66145;SDS011;52948;60.040;30.320;2022-12-18T06:51:23;18.15;;;10.73;;
66145;SDS011;52948;60.040;30.320;2022-12-18T06:56:26;18.85;;;10.45;;
66145;SDS011;52948;60.040;30.320;2022-12-18T07:01:28;18.05;;;9.70;;
66145;SDS011;52948;60.040;30.320;2022-12-18T07:06:31;19.73;;;10.15;;
66145;SDS011;52948;60.040;30.320;2022-12-18T07:11:41;17.15;;;9.70;;
66145;SDS011;52948;60.040;30.320;2022-12-18T07:16:43;17.42;;;9.63;;
66145;SDS011;52948;60.040;30.320;2022-12-18T07:21:45;13.98;;;8.45;;
66145;SDS011;52948;60.040;30.320;2022-12-18T07:26:48;18.65;;;8.90;;
66145;SDS011;52948;60.040;30.320;2022-12-18T07:31:50;14.93;;;9.18;;
66145;SDS011;52948;60.040;30.320;2022-12-18T07:36:52;16.73;;;9.20;;
66145;SDS011;52948;60.040;30.320;2022-12-18T07:41:57;18.73;;;9.10;;
66145;SDS011;52948;60.040;30.320;2022-12-18T07:47:18;15.57;;;8.82;;
66145;SDS011;52948;60.040;30.320;2022-12-18T07:52:21;14.90;;;8.73;;
66145;SDS011;52948;60.040;30.320;2022-12-18T07:57:23;14.80;;;8.07;;
66145;SDS011;52948;60.040;30.320;2022-12-18T08:02:26;17.83;;;9.05;;
66145;SDS011;52948;60.040;30.320;2022-12-18T08:07:28;17.73;;;9.43;;
66145;SDS011;52948;60.040;30.320;2022-12-18T08:12:30;19.27;;;9.32;;
66145;SDS011;52948;60.040;30.320;2022-12-18T08:17:33;18.35;;;9.98;;
66145;SDS011;52948;60.040;30.320;2022-12-18T08:22:35;20.23;;;10.20;;
66145;SDS011;52948;60.040;30.320;2022-12-18T08:27:40;19.40;;;10.45;;
66145;SDS011;52948;60.040;30.320;2022-12-18T08:32:43;19.00;;;9.85;;
66145;SDS011;52948;60.040;30.320;2022-12-18T08:37:45;17.23;;;9.80;;
66145;SDS011;52948;60.040;30.320;2022-12-18T08:42:47;18.63;;;9.15;;
66145;SDS011;52948;60.040;30.320;2022-12-18T08:48:08;17.35;;;8.90;;
66145;SDS011;52948;60.040;30.320;2022-12-18T08:53:10;18.27;;;9.48;;
66145;SDS011;52948;60.040;30.320;2022-12-18T08:58:13;16.77;;;9.00;;
66145;SDS011;52948;60.040;30.320;2022-12-18T09:03:16;19.95;;;9.82;;
66145;SDS011;52948;60.040;30.320;2022-12-18T09:08:19;17.98;;;7.97;;
66145;SDS011;52948;60.040;30.320;2022-12-18T09:13:21;17.80;;;8.70;;
66145;SDS011;52948;60.040;30.320;2022-12-18T09:18:24;18.40;;;7.38;;
66145;SDS011;52948;60.040;30.320;2022-12-18T09:23:26;18.80;;;7.95;;
66145;SDS011;52948;60.040;30.320;2022-12-18T09:28:29;21.25;;;9.10;;
66145;SDS011;52948;60.040;30.320;2022-12-18T09:33:31;22.45;;;10.05;;
66145;SDS011;52948;60.040;30.320;2022-12-18T09:38:34;22.30;;;9.73;;
66145;SDS011;52948;60.040;30.320;2022-12-18T09:43:39;23.20;;;9.90;;
66145;SDS011;52948;60.040;30.320;2022-12-18T09:48:48;18.58;;;7.93;;
66145;SDS011;52948;60.040;30.320;2022-12-18T09:53:53;19.65;;;7.95;;
66145;SDS011;52948;60.040;30.320;2022-12-18T09:58:59;23.65;;;8.63;;
66145;SDS011;52948;60.040;30.320;2022-12-18T10:04:02;19.92;;;8.32;;
66145;SDS011;52948;60.040;30.320;2022-12-18T10:14:50;13.02;;;6.10;;
66145;SDS011;52948;60.040;30.320;2022-12-18T10:20:37;10.73;;;5.47;;
66145;SDS011;52948;60.040;30.320;2022-12-18T10:31:14;10.77;;;5.55;;
66145;SDS011;52948;60.040;30.320;2022-12-18T10:36:18;10.88;;;5.50;;
66145;SDS011;52948;60.040;30.320;2022-12-18T10:46:28;11.77;;;5.03;;
66145;SDS011;52948;60.040;30.320;2022-12-18T10:51:34;10.85;;;4.90;;
66145;SDS011;52948;60.040;30.320;2022-12-18T10:56:39;10.65;;;5.28;;
66145;SDS011;52948;60.040;30.320;2022-12-18T11:02:07;10.88;;;4.95;;
66145;SDS011;52948;60.040;30.320;2022-12-18T11:07:10;9.80;;;4.60;;
66145;SDS011;52948;60.040;30.320;2022-12-18T11:12:19;11.20;;;4.43;;
66145;SDS011;52948;60.040;30.320;2022-12-18T11:17:28;10.63;;;5.20;;
66145;SDS011;52948;60.040;30.320;2022-12-18T11:22:36;9.18;;;4.47;;
66145;SDS011;52948;60.040;30.320;2022-12-18T11:27:40;10.60;;;5.47;;
66145;SDS011;52948;60.040;30.320;2022-12-18T11:32:45;10.85;;;5.25;;
66145;SDS011;52948;60.040;30.320;2022-12-18T11:37:53;11.43;;;5.25;;
66145;SDS011;52948;60.040;30.320;2022-12-18T11:43:05;9.20;;;5.13;;
66145;SDS011;52948;60.040;30.320;2022-12-18T11:48:16;10.68;;;4.88;;
66145;SDS011;52948;60.040;30.320;2022-12-18T11:53:20;13.00;;;5.10;;
66145;SDS011;52948;60.040;30.320;2022-12-18T12:14:26;11.68;;;4.28;;
66145;SDS011;52948;60.040;30.320;2022-12-18T12:19:55;11.30;;;4.50;;
66145;SDS011;52948;60.040;30.320;2022-12-18T12:40:58;13.98;;;5.32;;
66145;SDS011;52948;60.040;30.320;2022-12-18T12:56:44;7.70;;;3.78;;
66145;SDS011;52948;60.040;30.320;2022-12-18T13:07:16;11.57;;;4.68;;
66145;SDS011;52948;60.040;30.320;2022-12-18T13:12:31;10.85;;;4.63;;
66145;SDS011;52948;60.040;30.320;2022-12-18T13:38:42;12.70;;;4.47;;
66145;SDS011;52948;60.040;30.320;2022-12-18T13:43:49;9.73;;;4.13;;
66145;SDS011;52948;60.040;30.320;2022-12-18T13:54:45;9.27;;;4.38;;
66145;SDS011;52948;60.040;30.320;2022-12-18T13:59:50;9.20;;;4.35;;
66145;SDS011;52948;60.040;30.320;2022-12-18T14:04:53;9.82;;;4.30;;
66145;SDS011;52948;60.040;30.320;2022-12-18T14:09:56;5.95;;;3.40;;
66145;SDS011;52948;60.040;30.320;2022-12-18T14:15:02;10.52;;;4.20;;
66145;SDS011;52948;60.040;30.320;2022-12-18T14:20:05;8.50;;;3.55;;
66145;SDS011;52948;60.040;30.320;2022-12-18T14:25:17;12.15;;;4.43;;
66145;SDS011;52948;60.040;30.320;2022-12-18T14:35:38;7.10;;;4.85;;
66145;SDS011;52948;60.040;30.320;2022-12-18T14:40:46;6.53;;;3.03;;
66145;SDS011;52948;60.040;30.320;2022-12-18T14:45:48;8.23;;;3.85;;
66145;SDS011;52948;60.040;30.320;2022-12-18T14:51:01;8.07;;;3.60;;
66145;SDS011;52948;60.040;30.320;2022-12-18T15:01:37;5.35;;;3.03;;
66145;SDS011;52948;60.040;30.320;2022-12-18T15:06:46;6.05;;;3.22;;
66145;SDS011;52948;60.040;30.320;2022-12-18T15:11:58;6.32;;;3.10;;
66145;SDS011;52948;60.040;30.320;2022-12-18T15:17:05;5.55;;;2.80;;
66145;SDS011;52948;60.040;30.320;2022-12-18T15:22:26;4.70;;;2.22;;
66145;SDS011;52948;60.040;30.320;2022-12-18T15:27:31;6.03;;;3.05;;
66145;SDS011;52948;60.040;30.320;2022-12-18T15:32:37;6.97;;;2.90;;
66145;SDS011;52948;60.040;30.320;2022-12-18T15:37:43;6.10;;;2.90;;
66145;SDS011;52948;60.040;30.320;2022-12-18T15:42:46;3.15;;;1.63;;
66145;SDS011;52948;60.040;30.320;2022-12-18T15:48:12;5.07;;;2.15;;
66145;SDS011;52948;60.040;30.320;2022-12-18T15:53:19;3.63;;;1.60;;
66145;SDS011;52948;60.040;30.320;2022-12-18T15:58:22;2.72;;;1.77;;
66145;SDS011;52948;60.040;30.320;2022-12-18T16:03:24;6.88;;;2.90;;
66145;SDS011;52948;60.040;30.320;2022-12-18T16:08:26;4.70;;;2.13;;
66145;SDS011;52948;60.040;30.320;2022-12-18T16:13:31;2.83;;;1.45;;
66145;SDS011;52948;60.040;30.320;2022-12-18T16:18:36;5.70;;;2.90;;
66145;SDS011;52948;60.040;30.320;2022-12-18T16:23:38;4.82;;;2.25;;
66145;SDS011;52948;60.040;30.320;2022-12-18T16:28:40;4.15;;;2.63;;
66145;SDS011;52948;60.040;30.320;2022-12-18T16:33:42;4.05;;;2.70;;
66145;SDS011;52948;60.040;30.320;2022-12-18T16:38:48;5.70;;;2.15;;
66145;SDS011;52948;60.040;30.320;2022-12-18T16:43:50;4.07;;;2.30;;
66145;SDS011;52948;60.040;30.320;2022-12-18T16:48:52;1.98;;;1.23;;
66145;SDS011;52948;60.040;30.320;2022-12-18T16:53:54;2.60;;;1.85;;
66145;SDS011;52948;60.040;30.320;2022-12-18T16:58:58;2.03;;;1.30;;
66145;SDS011;52948;60.040;30.320;2022-12-18T17:04:03;1.25;;;1.05;;
66145;SDS011;52948;60.040;30.320;2022-12-18T17:09:07;4.95;;;2.03;;
66145;SDS011;52948;60.040;30.320;2022-12-18T17:14:12;6.70;;;2.75;;
66145;SDS011;52948;60.040;30.320;2022-12-18T17:19:19;5.90;;;3.83;;
66145;SDS011;52948;60.040;30.320;2022-12-18T17:24:27;9.43;;;3.17;;
66145;SDS011;52948;60.040;30.320;2022-12-18T17:29:29;4.47;;;2.20;;
66145;SDS011;52948;60.040;30.320;2022-12-18T17:34:33;6.63;;;3.08;;
66145;SDS011;52948;60.040;30.320;2022-12-18T17:39:35;6.72;;;2.75;;
66145;SDS011;52948;60.040;30.320;2022-12-18T17:44:38;5.45;;;3.25;;
66145;SDS011;52948;60.040;30.320;2022-12-18T17:49:40;8.18;;;3.05;;
66145;SDS011;52948;60.040;30.320;2022-12-18T17:54:44;5.82;;;2.67;;
66145;SDS011;52948;60.040;30.320;2022-12-18T17:59:46;5.25;;;3.08;;
66145;SDS011;52948;60.040;30.320;2022-12-18T18:04:49;6.53;;;2.50;;
66145;SDS011;52948;60.040;30.320;2022-12-18T18:09:52;4.63;;;2.58;;
66145;SDS011;52948;60.040;30.320;2022-12-18T18:14:54;3.08;;;2.42;;
66145;SDS011;52948;60.040;30.320;2022-12-18T18:19:57;4.78;;;2.13;;
66145;SDS011;52948;60.040;30.320;2022-12-18T18:24:59;5.60;;;3.45;;
66145;SDS011;52948;60.040;30.320;2022-12-18T18:30:05;8.88;;;3.00;;
66145;SDS011;52948;60.040;30.320;2022-12-18T18:35:08;5.35;;;3.28;;
66145;SDS011;52948;60.040;30.320;2022-12-18T18:40:10;3.78;;;1.95;;
66145;SDS011;52948;60.040;30.320;2022-12-18T18:45:16;7.28;;;3.45;;
66145;SDS011;52948;60.040;30.320;2022-12-18T18:50:22;3.70;;;1.85;;
66145;SDS011;52948;60.040;30.320;2022-12-18T18:55:24;6.72;;;3.20;;
66145;SDS011;52948;60.040;30.320;2022-12-18T19:00:27;3.83;;;2.17;;
66145;SDS011;52948;60.040;30.320;2022-12-18T19:05:30;5.07;;;2.40;;
66145;SDS011;52948;60.040;30.320;2022-12-18T19:10:32;6.85;;;2.97;;
66145;SDS011;52948;60.040;30.320;2022-12-18T19:15:35;8.05;;;2.90;;
66145;SDS011;52948;60.040;30.320;2022-12-18T19:20:37;6.90;;;3.10;;
66145;SDS011;52948;60.040;30.320;2022-12-18T19:25:40;7.72;;;3.22;;
66145;SDS011;52948;60.040;30.320;2022-12-18T19:30:42;9.90;;;4.85;;
66145;SDS011;52948;60.040;30.320;2022-12-18T19:35:45;12.00;;;4.47;;
66145;SDS011;52948;60.040;30.320;2022-12-18T19:40:47;6.30;;;3.70;;
66145;SDS011;52948;60.040;30.320;2022-12-18T19:45:55;8.23;;;4.57;;
66145;SDS011;52948;60.040;30.320;2022-12-18T19:51:03;7.45;;;4.10;;
66145;SDS011;52948;60.040;30.320;2022-12-18T19:56:08;9.13;;;4.80;;
66145;SDS011;52948;60.040;30.320;2022-12-18T20:01:14;9.02;;;4.30;;
66145;SDS011;52948;60.040;30.320;2022-12-18T20:06:20;7.53;;;4.03;;
66145;SDS011;52948;60.040;30.320;2022-12-18T20:11:26;8.43;;;4.47;;
66145;SDS011;52948;60.040;30.320;2022-12-18T20:16:29;7.15;;;3.88;;
66145;SDS011;52948;60.040;30.320;2022-12-18T20:21:32;8.25;;;4.07;;
66145;SDS011;52948;60.040;30.320;2022-12-18T20:26:35;7.45;;;3.95;;
66145;SDS011;52948;60.040;30.320;2022-12-18T20:31:37;6.78;;;4.00;;
66145;SDS011;52948;60.040;30.320;2022-12-18T20:36:40;9.25;;;3.53;;
66145;SDS011;52948;60.040;30.320;2022-12-18T20:41:43;7.53;;;3.90;;
66145;SDS011;52948;60.040;30.320;2022-12-18T20:46:46;8.05;;;3.47;;
66145;SDS011;52948;60.040;30.320;2022-12-18T20:51:49;6.80;;;3.28;;
66145;SDS011;52948;60.040;30.320;2022-12-18T20:56:54;8.57;;;4.05;;
66145;SDS011;52948;60.040;30.320;2022-12-18T21:01:57;5.70;;;3.08;;
66145;SDS011;52948;60.040;30.320;2022-12-18T21:06:59;5.55;;;3.38;;
66145;SDS011;52948;60.040;30.320;2022-12-18T21:12:02;4.45;;;3.28;;
66145;SDS011;52948;60.040;30.320;2022-12-18T21:17:24;5.95;;;3.45;;
66145;SDS011;52948;60.040;30.320;2022-12-18T21:22:27;8.32;;;4.10;;
66145;SDS011;52948;60.040;30.320;2022-12-18T21:27:29;5.28;;;3.67;;
66145;SDS011;52948;60.040;30.320;2022-12-18T21:32:32;4.78;;;3.30;;
66145;SDS011;52948;60.040;30.320;2022-12-18T21:37:34;4.60;;;2.50;;
66145;SDS011;52948;60.040;30.320;2022-12-18T21:42:36;3.53;;;2.13;;
66145;SDS011;52948;60.040;30.320;2022-12-18T21:47:59;3.85;;;1.92;;
66145;SDS011;52948;60.040;30.320;2022-12-18T21:53:02;4.38;;;2.67;;
66145;SDS011;52948;60.040;30.320;2022-12-18T21:58:05;4.82;;;2.38;;
66145;SDS011;52948;60.040;30.320;2022-12-18T22:03:07;3.40;;;2.30;;
66145;SDS011;52948;60.040;30.320;2022-12-18T22:08:09;4.65;;;2.40;;
66145;SDS011;52948;60.040;30.320;2022-12-18T22:13:12;3.92;;;2.30;;
66145;SDS011;52948;60.040;30.320;2022-12-18T22:18:15;4.22;;;2.20;;
66145;SDS011;52948;60.040;30.320;2022-12-18T22:23:17;4.72;;;2.22;;
66145;SDS011;52948;60.040;30.320;2022-12-18T22:28:19;4.90;;;2.95;;
66145;SDS011;52948;60.040;30.320;2022-12-18T22:33:40;6.32;;;2.83;;
66145;SDS011;52948;60.040;30.320;2022-12-18T22:38:45;4.55;;;2.53;;
66145;SDS011;52948;60.040;30.320;2022-12-18T22:43:47;5.55;;;2.83;;
66145;SDS011;52948;60.040;30.320;2022-12-18T22:48:50;4.63;;;2.42;;
66145;SDS011;52948;60.040;30.320;2022-12-18T22:53:52;3.42;;;2.53;;
66145;SDS011;52948;60.040;30.320;2022-12-18T22:58:55;3.38;;;2.38;;
66145;SDS011;52948;60.040;30.320;2022-12-18T23:03:58;3.08;;;2.28;;
66145;SDS011;52948;60.040;30.320;2022-12-18T23:09:00;4.70;;;2.38;;
66145;SDS011;52948;60.040;30.320;2022-12-18T23:14:02;3.08;;;2.28;;
66145;SDS011;52948;60.040;30.320;2022-12-18T23:19:05;3.55;;;2.17;;
66145;SDS011;52948;60.040;30.320;2022-12-18T23:24:08;3.97;;;2.22;;
66145;SDS011;52948;60.040;30.320;2022-12-18T23:29:12;4.53;;;2.05;;
66145;SDS011;52948;60.040;30.320;2022-12-18T23:34:14;3.70;;;2.47;;
66145;SDS011;52948;60.040;30.320;2022-12-18T23:39:19;2.40;;;1.80;;
66145;SDS011;52948;60.040;30.320;2022-12-18T23:44:21;3.28;;;2.28;;
66145;SDS011;52948;60.040;30.320;2022-12-18T23:49:23;3.22;;;2.03;;
66145;SDS011;52948;60.040;30.320;2022-12-18T23:54:25;4.50;;;2.00;;
66145;SDS011;52948;60.040;30.320;2022-12-18T23:59:28;2.42;;;1.80;;
